Time;durP1;ratioP1;P1;durP2;ratioP2;P2;SDS_P1;SDS_P2;PMS_P1;PMS_P2;Temp;Humidity;BMP_temperature;BMP_pressure;BME280_temperature;BME280_humidity;BME280_pressure;Samples;Min_cycle;Max_cycle;Signal;HPM_P1;HPM_P2
2023/07/28 00:01:34;;;;;;;1.38;1.13;;;19.90;90.10;;;;;;5079718;28;20104;-63
2023/07/28 00:03:59;;;;;;;1.75;1.08;;;19.90;90.10;;;;;;5075659;28;20120;-64
2023/07/28 00:06:25;;;;;;;1.45;1.13;;;19.90;90.10;;;;;;5076534;28;20052;-63
2023/07/28 00:08:51;;;;;;;0.73;0.73;;;20.00;90.00;;;;;;5071447;28;20036;-63
2023/07/28 00:11:16;;;;;;;0.93;0.90;;;20.00;90.00;;;;;;5076186;28;20082;-63
2023/07/28 00:13:43;;;;;;;2.50;1.48;;;20.00;90.00;;;;;;5073685;28;20029;-63
2023/07/28 00:16:10;;;;;;;2.47;1.88;;;20.00;89.90;;;;;;5068727;28;20043;-63
2023/07/28 00:18:35;;;;;;;1.98;1.27;;;20.00;90.00;;;;;;5069740;28;20036;-63
2023/07/28 00:21:01;;;;;;;1.73;1.25;;;20.00;90.00;;;;;;5073362;28;20108;-63
2023/07/28 00:23:28;;;;;;;1.85;1.30;;;19.90;90.00;;;;;;5063405;28;20040;-63
2023/07/28 00:25:54;;;;;;;1.60;1.25;;;20.00;90.00;;;;;;5066315;28;20479;-63
2023/07/28 00:28:19;;;;;;;3.00;1.65;;;20.00;90.00;;;;;;5077485;28;20059;-63
2023/07/28 00:30:49;;;;;;;2.40;1.70;;;20.00;90.00;;;;;;5072694;28;20515;-63
2023/07/28 00:33:15;;;;;;;2.10;1.15;;;20.00;90.00;;;;;;5067152;28;20071;-63
2023/07/28 00:35:41;;;;;;;1.67;1.00;;;20.00;90.00;;;;;;5072337;28;20482;-63
2023/07/28 00:38:07;;;;;;;1.30;1.10;;;20.00;90.00;;;;;;5092702;28;20051;-63
2023/07/28 00:40:32;;;;;;;4.47;1.83;;;20.00;89.90;;;;;;5071840;28;20039;-63
2023/07/28 00:42:58;;;;;;;1.73;1.60;;;20.00;90.00;;;;;;5062766;28;20440;-63
2023/07/28 00:45:25;;;;;;;2.28;1.20;;;20.00;90.00;;;;;;5072031;28;20422;-63
2023/07/28 00:47:51;;;;;;;3.03;1.75;;;20.00;90.00;;;;;;5078953;28;20028;-63
2023/07/28 00:50:17;;;;;;;1.92;1.33;;;20.00;90.00;;;;;;5072277;28;20072;-62
2023/07/28 00:52:44;;;;;;;2.08;1.27;;;20.00;89.90;;;;;;5072042;28;20495;-62
2023/07/28 00:55:09;;;;;;;4.43;1.35;;;20.00;90.00;;;;;;5081761;28;20483;-62
2023/07/28 00:57:35;;;;;;;2.58;1.45;;;20.00;90.00;;;;;;5080879;28;20056;-62
2023/07/28 01:00:01;;;;;;;1.92;1.38;;;20.00;90.00;;;;;;5079109;28;20388;-62
2023/07/28 01:02:26;;;;;;;1.38;0.95;;;20.00;90.00;;;;;;5083302;28;20036;-62
2023/07/28 01:04:52;;;;;;;2.63;1.52;;;20.00;90.00;;;;;;5080576;28;20154;-63
2023/07/28 01:07:33;;;;;;;2.83;1.77;;;20.00;90.00;;;;;;5079343;28;20056;-63
2023/07/28 01:10:38;;;;;;;1.75;1.25;;;20.00;90.00;;;;;;5074304;28;20039;-63
2023/07/28 01:13:04;;;;;;;2.60;1.73;;;20.00;90.00;;;;;;5016982;28;20060;-63
2023/07/28 01:15:29;;;;;;;1.67;1.08;;;20.00;90.00;;;;;;5041215;28;20476;-62
2023/07/28 01:17:55;;;;;;;2.33;1.60;;;20.00;90.00;;;;;;5058489;28;20418;-63
2023/07/28 01:20:27;;;;;;;1.33;1.05;;;20.00;89.90;;;;;;5084599;28;20028;-63
2023/07/28 01:23:19;;;;;;;3.58;1.70;;;20.00;90.00;;;;;;5082082;28;20482;-63
2023/07/28 01:25:55;;;;;;;2.97;2.08;;;20.00;90.00;;;;;;5081659;28;20024;-63
2023/07/28 01:28:21;;;;;;;2.35;1.83;;;19.90;90.10;;;;;;5078653;28;20032;-63
2023/07/28 01:30:47;;;;;;;3.33;1.83;;;19.90;90.10;;;;;;5083669;28;20048;-63
2023/07/28 01:33:13;;;;;;;1.65;1.55;;;19.90;90.10;;;;;;5086347;28;20046;-63
2023/07/28 01:35:39;;;;;;;2.30;1.30;;;19.90;90.10;;;;;;5083128;28;20139;-63
2023/07/28 01:38:05;;;;;;;3.33;1.83;;;19.90;90.10;;;;;;5075197;28;20028;-63
2023/07/28 01:40:31;;;;;;;1.90;1.50;;;19.90;90.20;;;;;;5081495;28;20050;-63
2023/07/28 01:42:57;;;;;;;1.55;1.27;;;20.00;90.20;;;;;;5071625;28;20029;-63
2023/07/28 01:45:22;;;;;;;2.50;2.00;;;20.00;90.10;;;;;;5073896;28;20037;-63
2023/07/28 01:47:48;;;;;;;2.50;1.80;;;20.00;90.10;;;;;;5083743;28;20039;-63
2023/07/28 01:50:13;;;;;;;3.47;2.20;;;20.00;90.10;;;;;;5079081;28;20045;-63
2023/07/28 01:52:39;;;;;;;2.80;2.03;;;20.00;90.00;;;;;;5081428;28;20270;-63
2023/07/28 01:55:06;;;;;;;2.80;2.10;;;20.00;90.10;;;;;;5080289;28;20028;-63
2023/07/28 01:57:35;;;;;;;4.25;1.83;;;20.00;90.10;;;;;;5078461;28;20116;-63
2023/07/28 02:00:03;;;;;;;1.75;1.27;;;20.00;90.10;;;;;;5078686;28;20032;-63
2023/07/28 02:02:29;;;;;;;3.80;2.22;;;20.00;90.10;;;;;;5077386;28;20029;-63
2023/07/28 02:04:54;;;;;;;1.77;1.67;;;20.00;90.10;;;;;;5077869;28;20608;-63
2023/07/28 02:07:20;;;;;;;2.55;1.55;;;20.10;90.00;;;;;;5072937;28;20394;-63
2023/07/28 02:09:45;;;;;;;2.78;1.88;;;20.00;90.30;;;;;;5078983;28;20059;-63
2023/07/28 02:12:11;;;;;;;2.53;1.58;;;20.00;90.30;;;;;;5077659;28;20398;-63
2023/07/28 02:14:37;;;;;;;3.15;2.08;;;20.00;90.10;;;;;;5073935;28;20036;-63
2023/07/28 02:17:02;;;;;;;3.03;1.80;;;20.00;90.10;;;;;;5071539;28;20164;-63
2023/07/28 02:19:28;;;;;;;2.92;2.00;;;20.00;90.10;;;;;;5074647;28;20026;-63
2023/07/28 02:21:54;;;;;;;2.53;1.60;;;20.00;90.10;;;;;;5074159;28;20526;-63
2023/07/28 02:24:19;;;;;;;2.70;1.92;;;20.00;90.10;;;;;;5072860;28;20406;-63
2023/07/28 02:26:45;;;;;;;4.10;2.38;;;20.00;90.00;;;;;;5076317;28;20414;-63
2023/07/28 02:29:11;;;;;;;5.60;2.47;;;20.00;90.00;;;;;;5079486;28;20038;-61
2023/07/28 02:31:36;;;;;;;6.75;3.08;;;20.00;90.00;;;;;;5083941;28;20233;-61
2023/07/28 02:34:02;;;;;;;2.65;1.55;;;20.00;90.00;;;;;;5087347;28;20110;-63
2023/07/28 02:36:28;;;;;;;4.47;2.13;;;20.00;90.00;;;;;;5078751;28;20086;-63
2023/07/28 02:38:53;;;;;;;4.18;2.38;;;20.00;90.00;;;;;;5081114;28;20040;-63
2023/07/28 02:41:19;;;;;;;1.88;1.55;;;20.10;90.10;;;;;;5080836;28;20040;-63
2023/07/28 02:43:44;;;;;;;3.45;2.03;;;20.10;90.00;;;;;;5082575;28;20083;-63
2023/07/28 02:46:10;;;;;;;3.85;2.13;;;20.10;90.00;;;;;;5081780;28;20051;-63
2023/07/28 02:48:36;;;;;;;6.40;2.92;;;20.10;89.90;;;;;;5072266;28;20321;-63
2023/07/28 02:51:01;;;;;;;5.13;2.65;;;20.10;89.90;;;;;;5073963;28;20118;-63
2023/07/28 02:53:27;;;;;;;8.25;3.47;;;20.10;89.90;;;;;;5079432;28;20444;-63
2023/07/28 02:55:53;;;;;;;3.70;2.45;;;20.10;90.00;;;;;;5081309;28;20028;-64
2023/07/28 02:58:19;;;;;;;6.50;3.42;;;20.10;90.00;;;;;;5078562;28;20081;-63
2023/07/28 03:00:46;;;;;;;3.85;2.25;;;20.00;90.00;;;;;;5080638;28;20393;-63
2023/07/28 03:03:12;;;;;;;7.60;3.63;;;20.10;90.00;;;;;;5070270;28;20392;-63
2023/07/28 03:05:39;;;;;;;4.85;2.70;;;20.10;90.00;;;;;;5084528;28;20024;-63
2023/07/28 03:08:05;;;;;;;7.28;2.92;;;20.10;89.90;;;;;;5074660;28;20135;-63
2023/07/28 03:10:31;;;;;;;6.40;1.92;;;20.10;90.00;;;;;;5074740;28;20518;-63
2023/07/28 03:12:57;;;;;;;5.53;3.38;;;20.10;90.00;;;;;;5070940;28;20040;-63
2023/07/28 03:15:23;;;;;;;6.30;2.80;;;20.10;89.90;;;;;;5070542;28;20029;-63
2023/07/28 03:17:50;;;;;;;7.75;4.68;;;20.10;89.90;;;;;;5074053;28;20025;-63
2023/07/28 03:20:16;;;;;;;4.75;2.88;;;20.10;90.00;;;;;;5079145;28;20033;-63
2023/07/28 03:22:41;;;;;;;5.72;3.47;;;20.10;90.00;;;;;;5076947;28;20541;-63
2023/07/28 03:25:07;;;;;;;3.63;2.53;;;20.10;90.00;;;;;;5077145;28;20028;-63
2023/07/28 03:27:33;;;;;;;4.55;2.60;;;20.10;90.20;;;;;;5073360;28;20085;-63
2023/07/28 03:29:59;;;;;;;5.50;2.60;;;20.10;90.00;;;;;;5069814;28;20029;-63
2023/07/28 03:32:25;;;;;;;5.03;2.20;;;20.10;89.90;;;;;;5069310;28;20464;-63
2023/07/28 03:34:50;;;;;;;8.02;4.45;;;20.10;89.90;;;;;;5071797;28;20127;-63
2023/07/28 03:37:16;;;;;;;6.35;3.35;;;20.10;90.00;;;;;;5072043;28;20044;-63
2023/07/28 03:39:42;;;;;;;3.88;2.55;;;20.10;90.00;;;;;;5074990;28;20059;-63
2023/07/28 03:42:08;;;;;;;5.38;2.97;;;20.10;90.00;;;;;;5068949;28;20032;-63
2023/07/28 03:44:34;;;;;;;5.15;3.42;;;20.10;90.00;;;;;;5071433;28;20040;-63
2023/07/28 03:46:59;;;;;;;10.27;4.53;;;20.10;90.00;;;;;;5077194;28;20099;-62
2023/07/28 03:49:25;;;;;;;9.25;3.97;;;20.10;90.00;;;;;;5080389;28;20035;-63
2023/07/28 03:51:51;;;;;;;7.10;3.40;;;20.10;90.00;;;;;;5077641;28;20486;-63
2023/07/28 03:54:16;;;;;;;5.70;3.10;;;20.10;90.00;;;;;;5070764;28;20129;-63
2023/07/28 03:56:42;;;;;;;6.68;3.03;;;20.20;90.00;;;;;;5073114;28;20024;-63
2023/07/28 03:59:08;;;;;;;4.82;2.83;;;20.10;90.00;;;;;;5075519;28;20024;-63
2023/07/28 04:01:33;;;;;;;4.20;2.80;;;20.20;90.00;;;;;;5069763;28;20024;-63
2023/07/28 04:04:03;;;;;;;6.43;2.53;;;20.20;90.00;;;;;;5073627;28;20049;-63
2023/07/28 04:06:42;;;;;;;5.22;2.60;;;20.20;89.80;;;;;;5074036;28;20028;-62
2023/07/28 04:09:08;;;;;;;7.20;3.63;;;20.30;89.70;;;;;;5073920;28;20058;-63
2023/07/28 04:11:33;;;;;;;8.35;3.53;;;20.30;89.70;;;;;;5075085;28;20043;-63
2023/07/28 04:13:59;;;;;;;6.82;3.30;;;20.20;89.60;;;;;;5066955;28;20032;-63
2023/07/28 04:16:25;;;;;;;6.05;3.90;;;20.20;89.80;;;;;;5064617;28;20029;-62
2023/07/28 04:18:51;;;;;;;7.78;3.53;;;20.20;89.80;;;;;;5072039;28;20020;-63
2023/07/28 04:21:16;;;;;;;10.10;4.43;;;20.20;89.80;;;;;;5077136;28;20028;-63
2023/07/28 04:23:43;;;;;;;11.18;4.45;;;20.20;89.90;;;;;;5070032;28;20082;-62
2023/07/28 04:26:09;;;;;;;7.13;4.22;;;20.20;90.00;;;;;;5077432;28;20024;-62
2023/07/28 04:28:34;;;;;;;5.57;3.72;;;20.10;90.10;;;;;;5080195;28;20037;-62
2023/07/28 04:31:00;;;;;;;5.78;3.17;;;20.10;90.10;;;;;;5079410;28;20072;-62
2023/07/28 04:33:26;;;;;;;5.43;3.35;;;20.20;90.10;;;;;;5084989;28;20024;-63
2023/07/28 04:35:52;;;;;;;4.57;2.25;;;20.20;90.10;;;;;;5075955;28;20047;-63
2023/07/28 04:38:18;;;;;;;5.85;2.75;;;20.20;90.10;;;;;;5079562;28;20036;-63
2023/07/28 04:40:44;;;;;;;8.48;3.05;;;20.20;90.00;;;;;;5079067;28;20351;-63
2023/07/28 04:43:10;;;;;;;5.47;3.67;;;20.20;90.00;;;;;;5082240;28;20024;-63
2023/07/28 04:45:36;;;;;;;10.10;3.10;;;20.20;89.90;;;;;;5077083;28;20051;-63
2023/07/28 04:48:02;;;;;;;11.25;5.13;;;20.20;89.90;;;;;;5080580;28;20031;-64
2023/07/28 04:50:28;;;;;;;5.97;3.50;;;20.20;90.00;;;;;;5077669;28;20040;-63
2023/07/28 04:52:54;;;;;;;8.38;3.88;;;20.20;90.00;;;;;;5074132;28;20020;-63
2023/07/28 04:55:20;;;;;;;5.35;3.55;;;20.20;90.00;;;;;;5058393;28;20032;-63
2023/07/28 04:57:46;;;;;;;11.02;5.05;;;20.20;90.10;;;;;;5080819;28;20039;-63
2023/07/28 05:00:12;;;;;;;7.88;3.72;;;20.20;90.20;;;;;;5083289;28;20450;-63
2023/07/28 05:02:38;;;;;;;5.07;2.47;;;20.20;90.20;;;;;;5081445;28;20124;-63
2023/07/28 05:05:04;;;;;;;3.80;2.20;;;20.20;90.10;;;;;;5074692;28;20100;-63
2023/07/28 05:07:30;;;;;;;8.35;3.90;;;20.20;90.00;;;;;;5075758;28;20355;-64
2023/07/28 05:09:55;;;;;;;6.03;4.15;;;20.30;90.00;;;;;;5073572;28;20049;-63
2023/07/28 05:12:21;;;;;;;5.95;3.25;;;20.30;90.00;;;;;;5084196;28;20075;-63
2023/07/28 05:14:47;;;;;;;4.72;3.42;;;20.20;90.00;;;;;;5086241;28;20032;-63
2023/07/28 05:17:12;;;;;;;8.40;4.63;;;20.30;90.00;;;;;;5071663;28;20024;-63
2023/07/28 05:19:38;;;;;;;3.97;3.00;;;20.30;90.10;;;;;;5075095;28;20383;-63
2023/07/28 05:22:06;;;;;;;6.30;3.88;;;20.20;90.10;;;;;;5071021;28;20024;-63
2023/07/28 05:24:34;;;;;;;8.27;4.65;;;20.20;90.10;;;;;;5082670;28;20036;-63
2023/07/28 05:27:00;;;;;;;6.70;3.40;;;20.20;90.10;;;;;;5081812;28;20036;-63
2023/07/28 05:29:25;;;;;;;5.13;2.97;;;20.20;90.10;;;;;;5081765;28;20039;-63
2023/07/28 05:31:51;;;;;;;5.93;3.63;;;20.20;90.10;;;;;;5080387;28;20132;-63
2023/07/28 05:34:17;;;;;;;8.45;4.40;;;20.20;90.10;;;;;;5075123;28;20032;-63
2023/07/28 05:36:44;;;;;;;10.80;5.80;;;20.20;90.10;;;;;;5085359;28;20031;-63
2023/07/28 05:39:10;;;;;;;6.97;4.13;;;20.20;90.20;;;;;;5083671;28;20763;-63
2023/07/28 05:41:37;;;;;;;7.95;3.95;;;20.20;90.20;;;;;;5083764;28;20035;-63
2023/07/28 05:44:03;;;;;;;8.57;4.32;;;20.20;90.20;;;;;;5074076;28;20082;-63
2023/07/28 05:46:29;;;;;;;7.15;4.00;;;20.20;90.20;;;;;;5080565;28;20048;-63
2023/07/28 05:48:56;;;;;;;5.28;3.05;;;20.20;90.20;;;;;;5085275;28;20024;-63
2023/07/28 05:51:22;;;;;;;8.48;4.45;;;20.20;90.20;;;;;;5083832;28;20040;-63
2023/07/28 05:53:49;;;;;;;10.75;4.82;;;20.20;90.20;;;;;;5083175;28;20020;-63
2023/07/28 05:56:15;;;;;;;12.68;6.43;;;20.20;90.30;;;;;;5073964;28;20032;-63
2023/07/28 05:58:41;;;;;;;8.60;4.70;;;20.20;90.40;;;;;;5071791;28;20474;-63
2023/07/28 06:01:06;;;;;;;10.20;5.43;;;20.20;90.40;;;;;;5074326;28;20045;-63
2023/07/28 06:03:32;;;;;;;9.95;3.88;;;20.20;90.40;;;;;;5076000;28;20047;-63
2023/07/28 06:05:58;;;;;;;9.45;4.50;;;20.20;90.40;;;;;;5075258;28;20478;-63
2023/07/28 06:08:23;;;;;;;8.50;4.38;;;20.20;90.40;;;;;;5075485;28;20059;-63
2023/07/28 06:10:49;;;;;;;6.70;3.60;;;20.20;90.40;;;;;;5073221;28;20403;-63
2023/07/28 06:13:15;;;;;;;9.05;3.70;;;20.20;90.40;;;;;;5073913;28;20069;-63
2023/07/28 06:15:42;;;;;;;5.72;4.05;;;20.20;90.40;;;;;;5078048;28;20048;-63
2023/07/28 06:18:07;;;;;;;7.05;4.53;;;20.20;90.40;;;;;;5081667;28;20040;-63
2023/07/28 06:20:34;;;;;;;6.65;3.15;;;20.20;90.40;;;;;;5078236;28;20102;-62
2023/07/28 06:23:00;;;;;;;5.78;3.33;;;20.30;90.30;;;;;;5083435;28;20055;-63
2023/07/28 06:25:26;;;;;;;5.47;3.15;;;20.30;90.30;;;;;;5075830;28;20028;-63
2023/07/28 06:27:51;;;;;;;3.53;2.42;;;20.40;90.20;;;;;;5074379;28;20044;-62
2023/07/28 06:30:17;;;;;;;4.50;2.80;;;20.50;90.20;;;;;;5079899;28;20135;-63
2023/07/28 06:32:43;;;;;;;6.40;2.20;;;20.50;90.10;;;;;;5081307;28;20085;-63
2023/07/28 06:35:09;;;;;;;5.80;2.92;;;20.60;90.10;;;;;;5076267;28;20036;-63
2023/07/28 06:37:38;;;;;;;6.55;3.90;;;20.60;90.00;;;;;;5068873;28;20418;-63
2023/07/28 06:40:09;;;;;;;7.35;3.97;;;20.60;90.00;;;;;;5078617;28;20383;-63
2023/07/28 06:42:36;;;;;;;7.78;2.65;;;20.60;90.00;;;;;;5071202;28;20060;-63
2023/07/28 06:45:05;;;;;;;4.75;3.22;;;20.60;90.00;;;;;;5079956;28;20093;-62
2023/07/28 06:47:31;;;;;;;5.13;2.40;;;20.60;90.00;;;;;;5070229;28;20052;-63
2023/07/28 06:49:56;;;;;;;5.78;3.00;;;20.50;90.00;;;;;;5074604;28;20052;-63
2023/07/28 06:52:22;;;;;;;4.90;2.45;;;20.50;90.00;;;;;;5082391;28;20359;-63
2023/07/28 06:54:49;;;;;;;4.78;3.00;;;20.50;90.00;;;;;;5073595;28;20028;-63
2023/07/28 06:57:15;;;;;;;4.70;3.55;;;20.60;90.00;;;;;;5072969;28;20024;-63
2023/07/28 06:59:42;;;;;;;5.15;3.42;;;20.60;90.00;;;;;;5078115;28;20663;-63
2023/07/28 07:02:09;;;;;;;4.00;2.72;;;20.60;90.00;;;;;;5074622;28;20494;-63
2023/07/28 07:04:34;;;;;;;6.40;3.13;;;20.60;90.00;;;;;;5072377;28;20047;-63
2023/07/28 07:07:00;;;;;;;4.82;2.88;;;20.60;89.90;;;;;;5073119;28;20025;-63
2023/07/28 07:09:25;;;;;;;9.68;4.82;;;20.60;90.00;;;;;;5074833;28;20032;-63
2023/07/28 07:11:51;;;;;;;5.65;3.58;;;20.60;90.00;;;;;;5075297;28;20479;-63
2023/07/28 07:14:17;;;;;;;6.10;3.55;;;20.60;90.00;;;;;;5070936;28;20050;-63
2023/07/28 07:16:43;;;;;;;11.93;5.10;;;20.60;90.00;;;;;;5070205;28;20024;-63
2023/07/28 07:19:09;;;;;;;4.68;3.55;;;20.60;90.10;;;;;;5073862;28;20020;-63
2023/07/28 07:21:34;;;;;;;8.25;4.45;;;20.50;90.10;;;;;;5063521;28;20507;-63
2023/07/28 07:24:02;;;;;;;11.57;4.28;;;20.60;90.10;;;;;;5071436;28;20084;-63
2023/07/28 07:26:28;;;;;;;8.48;4.05;;;20.60;90.10;;;;;;5069005;28;20017;-63
2023/07/28 07:28:53;;;;;;;6.88;3.28;;;20.60;90.10;;;;;;5077164;28;20125;-62
2023/07/28 07:31:19;;;;;;;10.55;4.53;;;20.70;90.10;;;;;;5072706;28;20131;-62
2023/07/28 07:33:45;;;;;;;4.07;2.63;;;20.70;90.00;;;;;;5077935;28;20103;-63
2023/07/28 07:36:16;;;;;;;4.38;2.95;;;20.80;90.00;;;;;;5076806;28;20047;-63
2023/07/28 07:38:42;;;;;;;6.93;3.17;;;20.90;89.80;;;;;;5062718;28;20033;-63
2023/07/28 07:41:10;;;;;;;6.95;3.55;;;20.90;89.70;;;;;;5072009;28;20678;-62
2023/07/28 07:43:36;;;;;;;6.45;3.38;;;21.00;89.70;;;;;;5075769;28;20021;-62
2023/07/28 07:46:02;;;;;;;4.90;3.65;;;20.90;89.60;;;;;;5076451;28;20410;-63
2023/07/28 07:48:27;;;;;;;4.05;3.50;;;21.00;89.60;;;;;;5072212;28;20549;-63
2023/07/28 07:50:53;;;;;;;5.22;3.20;;;21.00;89.60;;;;;;5068921;28;20492;-63
2023/07/28 07:53:19;;;;;;;5.10;3.15;;;21.00;89.60;;;;;;5067678;28;20029;-62
2023/07/28 07:55:44;;;;;;;9.57;3.92;;;20.90;89.60;;;;;;5067325;28;20355;-63
2023/07/28 07:58:10;;;;;;;5.15;2.80;;;20.90;89.60;;;;;;5072094;28;20033;-62
2023/07/28 08:00:39;;;;;;;4.18;2.85;;;20.90;89.50;;;;;;5067215;28;20024;-63
2023/07/28 08:03:05;;;;;;;5.72;2.20;;;20.90;89.60;;;;;;5075049;28;20486;-63
2023/07/28 08:05:31;;;;;;;6.05;2.55;;;21.00;89.60;;;;;;5072994;28;20067;-63
2023/07/28 08:07:56;;;;;;;6.07;3.60;;;21.00;89.60;;;;;;5067182;28;20488;-63
2023/07/28 08:10:22;;;;;;;5.22;2.63;;;21.00;89.40;;;;;;5070475;28;20036;-63
2023/07/28 08:12:49;;;;;;;4.50;3.15;;;21.00;89.30;;;;;;5074865;28;20429;-62
2023/07/28 08:15:15;;;;;;;4.97;2.92;;;21.10;89.20;;;;;;5074757;28;20024;-63
2023/07/28 08:17:40;;;;;;;6.28;3.35;;;21.10;89.10;;;;;;5072572;28;20058;-63
2023/07/28 08:20:07;;;;;;;3.78;2.13;;;21.10;88.90;;;;;;5080766;28;20471;-63
2023/07/28 08:22:33;;;;;;;3.78;2.50;;;21.20;89.00;;;;;;5083403;28;20024;-63
2023/07/28 08:24:58;;;;;;;7.32;2.92;;;21.20;88.80;;;;;;5070927;28;20025;-63
2023/07/28 08:27:24;;;;;;;4.60;3.10;;;21.20;88.80;;;;;;5077161;28;20038;-63
2023/07/28 08:29:50;;;;;;;4.68;2.53;;;21.30;88.70;;;;;;5073618;28;20032;-63
2023/07/28 08:32:16;;;;;;;4.10;2.53;;;21.20;88.60;;;;;;5067825;28;20051;-63
2023/07/28 08:34:41;;;;;;;5.03;3.15;;;21.30;89.30;;;;;;5074957;28;20115;-63
2023/07/28 08:37:07;;;;;;;9.15;3.63;;;21.30;88.50;;;;;;5072611;28;20037;-63
2023/07/28 08:39:33;;;;;;;5.13;2.75;;;21.30;88.40;;;;;;5074973;28;20047;-63
2023/07/28 08:42:03;;;;;;;5.82;2.55;;;21.20;88.40;;;;;;5078105;28;20056;-63
2023/07/28 08:44:33;;;;;;;2.70;2.13;;;21.30;88.60;;;;;;5081994;28;20493;-63
2023/07/28 08:47:00;;;;;;;6.75;3.83;;;21.30;88.60;;;;;;5079864;28;20631;-63
2023/07/28 08:49:26;;;;;;;7.95;3.65;;;21.30;88.50;;;;;;5073860;28;20058;-63
2023/07/28 08:51:57;;;;;;;6.47;3.97;;;21.30;88.30;;;;;;5077901;28;20049;-63
2023/07/28 08:54:23;;;;;;;6.03;2.97;;;21.20;88.20;;;;;;5073211;28;20039;-63
2023/07/28 08:56:49;;;;;;;9.95;4.60;;;21.10;88.40;;;;;;5074844;28;20040;-63
2023/07/28 08:59:26;;;;;;;7.28;3.67;;;21.20;88.30;;;;;;5074635;28;20418;-63
2023/07/28 09:01:53;;;;;;;3.83;2.80;;;21.20;88.40;;;;;;5074923;28;20028;-63
2023/07/28 09:04:20;;;;;;;5.93;3.20;;;21.30;88.40;;;;;;5081730;28;20107;-63
2023/07/28 09:06:49;;;;;;;5.30;2.70;;;21.40;88.20;;;;;;5070493;28;20487;-63
2023/07/28 09:09:15;;;;;;;5.13;2.65;;;21.60;87.90;;;;;;5078287;28;20110;-63
2023/07/28 09:12:00;;;;;;;4.15;2.65;;;21.70;87.70;;;;;;5074509;28;20028;-63
2023/07/28 09:14:26;;;;;;;3.85;2.80;;;21.80;87.40;;;;;;5077108;28;20029;-63
2023/07/28 09:16:52;;;;;;;3.05;2.05;;;21.70;87.20;;;;;;5063371;28;20372;-63
2023/07/28 09:19:20;;;;;;;6.32;3.45;;;21.70;87.30;;;;;;5071550;28;20426;-63
2023/07/28 09:22:00;;;;;;;8.32;3.15;;;21.70;86.90;;;;;;5078186;28;20048;-63
2023/07/28 09:24:36;;;;;;;5.95;2.97;;;21.70;87.10;;;;;;5074688;28;20073;-63
2023/07/28 09:27:02;;;;;;;6.25;2.67;;;21.80;87.30;;;;;;5072373;28;20037;-63
2023/07/28 09:29:28;;;;;;;3.17;2.63;;;21.70;87.10;;;;;;5075902;28;20111;-63
2023/07/28 09:32:02;;;;;;;3.05;1.80;;;21.80;87.00;;;;;;5077945;28;20048;-63
2023/07/28 09:34:28;;;;;;;2.28;1.67;;;21.80;87.00;;;;;;5074752;28;20048;-63
2023/07/28 09:36:55;;;;;;;4.03;2.30;;;21.70;87.00;;;;;;5070273;28;20071;-63
2023/07/28 09:39:21;;;;;;;6.43;3.58;;;21.80;87.00;;;;;;5074054;28;20033;-63
2023/07/28 09:41:47;;;;;;;5.28;3.38;;;21.80;86.60;;;;;;5073521;28;20059;-63
2023/07/28 09:44:14;;;;;;;4.97;2.55;;;21.80;86.60;;;;;;5081154;28;20031;-63
2023/07/28 09:46:57;;;;;;;5.18;2.78;;;21.90;86.60;;;;;;5076771;28;20016;-63
2023/07/28 09:49:39;;;;;;;8.82;3.33;;;22.20;86.50;;;;;;5076781;28;20020;-62
2023/07/28 09:52:08;;;;;;;5.03;3.00;;;22.40;84.70;;;;;;5082890;28;20103;-63
2023/07/28 09:54:40;;;;;;;5.63;2.00;;;22.70;84.80;;;;;;5085191;28;20020;-63
2023/07/28 09:57:13;;;;;;;3.33;2.47;;;23.00;84.30;;;;;;5073945;28;20040;-63
2023/07/28 09:59:41;;;;;;;4.05;2.42;;;23.30;83.90;;;;;;5072057;28;20394;-63
2023/07/28 10:02:08;;;;;;;5.22;2.97;;;23.50;83.40;;;;;;5079727;28;20036;-63
2023/07/28 10:04:35;;;;;;;4.72;2.95;;;23.70;82.20;;;;;;5076761;28;20104;-63
2023/07/28 10:07:03;;;;;;;4.38;2.65;;;23.80;81.70;;;;;;5079850;28;20044;-63
2023/07/28 10:09:33;;;;;;;6.20;3.30;;;23.70;81.60;;;;;;5078508;28;20067;-63
2023/07/28 10:12:00;;;;;;;4.55;2.47;;;23.60;81.30;;;;;;5074759;28;20387;-63
2023/07/28 10:14:27;;;;;;;4.28;2.25;;;23.60;81.60;;;;;;5076912;28;20025;-63
2023/07/28 10:16:53;;;;;;;4.68;3.03;;;23.60;81.70;;;;;;5078667;28;20037;-60
2023/07/28 10:19:28;;;;;;;5.05;2.60;;;23.70;81.00;;;;;;5078759;28;20472;-60
2023/07/28 10:22:08;;;;;;;4.78;2.55;;;23.80;80.80;;;;;;5078809;28;20062;-60
2023/07/28 10:24:53;;;;;;;5.28;3.10;;;24.10;80.60;;;;;;5079170;28;20124;-60
2023/07/28 10:27:50;;;;;;;5.22;2.15;;;24.20;80.10;;;;;;5077850;28;20094;-61
2023/07/28 10:30:15;;;;;;;3.10;2.00;;;24.40;79.30;;;;;;5049542;28;20123;-61
2023/07/28 10:32:44;;;;;;;4.55;2.78;;;24.50;79.20;;;;;;5077248;28;20467;-61
2023/07/28 10:35:23;;;;;;;3.30;1.75;;;24.40;78.30;;;;;;5074228;28;20032;-61
2023/07/28 10:37:49;;;;;;;4.88;2.45;;;24.40;79.20;;;;;;5067773;28;20044;-61
2023/07/28 10:40:27;;;;;;;4.53;2.50;;;24.50;79.00;;;;;;5078264;28;20063;-61
2023/07/28 10:42:53;;;;;;;2.78;1.95;;;24.50;78.00;;;;;;5073408;28;20037;-61
2023/07/28 10:45:20;;;;;;;4.63;2.00;;;24.60;78.60;;;;;;5079017;28;20052;-60
2023/07/28 10:47:47;;;;;;;4.97;2.70;;;24.80;78.70;;;;;;5081794;28;20040;-61
2023/07/28 10:50:15;;;;;;;5.20;3.00;;;24.90;77.90;;;;;;5079139;28;20056;-61
2023/07/28 10:52:42;;;;;;;5.15;2.47;;;24.80;77.40;;;;;;5075153;28;20020;-61
2023/07/28 10:55:14;;;;;;;2.70;1.80;;;24.70;76.60;;;;;;5078545;28;20367;-61
2023/07/28 10:57:44;;;;;;;4.13;2.25;;;24.50;77.60;;;;;;5073948;28;20024;-60
2023/07/28 11:00:12;;;;;;;3.90;2.55;;;24.50;77.40;;;;;;5073054;28;20543;-61
2023/07/28 11:02:45;;;;;;;3.92;1.73;;;24.60;77.40;;;;;;5079492;28;20538;-61
2023/07/28 11:05:22;;;;;;;3.22;2.28;;;24.70;77.40;;;;;;5071754;28;20039;-61
2023/07/28 11:07:48;;;;;;;3.70;1.92;;;24.70;76.70;;;;;;5074402;28;20036;-61
2023/07/28 11:10:17;;;;;;;4.40;2.42;;;24.70;76.80;;;;;;5079349;28;20530;-61
2023/07/28 11:12:44;;;;;;;6.00;3.33;;;24.70;76.20;;;;;;5072866;28;20020;-61
2023/07/28 11:15:11;;;;;;;3.88;2.42;;;24.90;76.40;;;;;;5076785;28;20085;-61
2023/07/28 11:17:39;;;;;;;4.28;2.30;;;25.10;75.50;;;;;;5071762;28;20036;-61
2023/07/28 11:20:19;;;;;;;4.40;2.65;;;25.30;75.10;;;;;;5071727;28;20032;-61
2023/07/28 11:22:47;;;;;;;3.85;2.60;;;25.30;74.40;;;;;;5076329;28;20029;-61
2023/07/28 11:25:13;;;;;;;5.15;2.88;;;25.20;74.80;;;;;;5071200;28;20081;-61
2023/07/28 11:27:39;;;;;;;3.28;2.15;;;25.10;75.30;;;;;;5071683;28;20119;-61
2023/07/28 11:30:07;;;;;;;3.25;2.50;;;25.10;74.90;;;;;;5078158;28;20064;-61
2023/07/28 11:32:36;;;;;;;2.70;1.95;;;25.30;75.10;;;;;;5074799;28;20097;-61
2023/07/28 11:35:06;;;;;;;4.68;2.40;;;25.30;74.60;;;;;;5066443;28;20052;-61
2023/07/28 11:37:33;;;;;;;3.60;2.50;;;25.30;74.10;;;;;;5073591;28;20130;-60
2023/07/28 11:40:01;;;;;;;3.30;2.15;;;25.30;73.70;;;;;;5067272;28;20020;-61
2023/07/28 11:42:31;;;;;;;4.95;2.20;;;25.30;73.10;;;;;;5075706;28;20028;-61
2023/07/28 11:44:58;;;;;;;3.65;2.65;;;25.30;73.60;;;;;;5075152;28;20028;-61
2023/07/28 11:47:24;;;;;;;4.25;2.47;;;25.50;72.90;;;;;;5076271;28;20109;-61
2023/07/28 11:49:51;;;;;;;3.33;2.05;;;25.60;73.10;;;;;;5080839;28;20497;-60
2023/07/28 11:52:17;;;;;;;3.67;2.20;;;25.50;73.00;;;;;;5075312;28;20024;-60
2023/07/28 11:54:44;;;;;;;4.25;3.08;;;25.40;73.00;;;;;;5070303;28;20359;-61
2023/07/28 11:57:10;;;;;;;5.07;2.78;;;25.40;72.60;;;;;;5072794;28;20029;-60
2023/07/28 11:59:36;;;;;;;3.92;3.03;;;25.30;73.30;;;;;;5057004;28;20189;-61
2023/07/28 12:02:04;;;;;;;4.05;2.75;;;25.40;71.80;;;;;;5071965;28;20055;-61
2023/07/28 12:04:38;;;;;;;4.95;2.30;;;25.40;72.20;;;;;;5077815;28;20032;-60
2023/07/28 12:07:12;;;;;;;2.97;2.22;;;25.40;72.30;;;;;;5071599;28;20127;-60
2023/07/28 12:09:51;;;;;;;3.45;2.10;;;25.60;72.70;;;;;;5077645;28;20090;-60
2023/07/28 12:12:19;;;;;;;4.13;1.92;;;25.70;72.30;;;;;;5070333;28;20032;-61
2023/07/28 12:14:48;;;;;;;3.25;2.00;;;25.70;72.10;;;;;;5068051;28;20020;-60
2023/07/28 12:17:18;;;;;;;7.40;3.65;;;25.70;71.40;;;;;;5080220;28;20040;-61
2023/07/28 12:20:01;;;;;;;4.13;2.58;;;25.70;70.70;;;;;;5072562;28;20040;-61
2023/07/28 12:22:27;;;;;;;3.80;2.13;;;25.70;71.40;;;;;;5078315;28;20043;-61
2023/07/28 12:24:53;;;;;;;4.15;2.50;;;25.80;71.80;;;;;;5080302;28;20510;-60
2023/07/28 12:27:23;;;;;;;2.88;2.00;;;25.90;71.20;;;;;;5077645;28;20131;-60
2023/07/28 12:29:52;;;;;;;2.90;2.40;;;25.90;71.00;;;;;;5077227;28;20028;-61
2023/07/28 12:32:19;;;;;;;2.05;1.60;;;26.00;71.40;;;;;;5076057;28;20511;-61
2023/07/28 12:34:45;;;;;;;4.00;2.75;;;26.10;71.40;;;;;;5071517;28;20041;-60
2023/07/28 12:37:10;;;;;;;2.33;1.75;;;26.10;69.60;;;;;;5074940;28;20597;-60
2023/07/28 12:39:41;;;;;;;3.38;2.08;;;26.00;69.80;;;;;;5084114;28;20028;-60
2023/07/28 12:42:07;;;;;;;2.28;1.85;;;25.90;70.40;;;;;;5073508;28;20434;-61
2023/07/28 12:44:33;;;;;;;3.08;2.03;;;25.90;70.70;;;;;;5078525;28;20024;-60
2023/07/28 12:46:59;;;;;;;3.30;1.55;;;26.10;70.30;;;;;;5073176;28;20026;-60